createdAt,value
2023-10-06T00:02:30.411Z,100523.16
2023-10-06T00:05:27.645Z,100516.60
2023-10-06T00:08:18.855Z,100517.23
2023-10-06T00:10:57.721Z,100509.49
2023-10-06T00:13:39.759Z,100513.29
2023-10-06T00:16:25.523Z,100521.81
2023-10-06T00:19:32.895Z,100515.95
2023-10-06T00:22:34.764Z,100516.87
2023-10-06T00:26:03.003Z,100510.39
2023-10-06T00:32:28.645Z,100508.20
2023-10-06T00:35:23.310Z,100516.42
2023-10-06T00:38:00.662Z,100506.62
2023-10-06T00:41:16.076Z,100518.75
2023-10-06T00:43:49.940Z,100515.43
2023-10-06T00:46:27.651Z,100514.86
2023-10-06T00:56:19.664Z,100516.12
2023-10-06T00:59:10.198Z,100511.84
2023-10-06T01:14:48.218Z,100516.14
2023-10-06T01:17:23.351Z,100515.66
2023-10-06T01:19:59.875Z,100512.64
2023-10-06T01:22:43.663Z,100513.80
2023-10-06T01:25:25.429Z,100515.20
2023-10-06T01:28:14.500Z,100517.77
2023-10-06T01:30:55.351Z,100515.37
2023-10-06T01:33:30.229Z,100522.16
2023-10-06T01:36:26.766Z,100524.88
2023-10-06T01:39:06.718Z,100526.05
2023-10-06T01:41:43.445Z,100514.70
2023-10-06T01:44:25.668Z,100517.73
2023-10-06T01:47:00.770Z,100512.82
2023-10-06T01:49:40.063Z,100514.05
2023-10-06T01:52:33.294Z,100507.94
2023-10-06T01:55:23.262Z,100506.10
2023-10-06T01:58:00.314Z,100518.71
2023-10-06T02:00:39.324Z,100515.33
2023-10-06T02:03:23.767Z,100506.10
2023-10-06T02:06:07.126Z,100501.93
2023-10-06T02:08:54.486Z,100507.20
2023-10-06T02:11:38.731Z,100503.55
2023-10-06T02:14:14.543Z,100502.30
2023-10-06T02:16:52.063Z,100492.66
2023-10-06T02:19:38.828Z,100497.11
2023-10-06T02:22:12.401Z,100499.17
2023-10-06T02:28:22.500Z,100496.95
2023-10-06T02:30:57.049Z,100498.08
2023-10-06T02:33:32.266Z,100489.83
2023-10-06T02:36:14.744Z,100492.63
2023-10-06T02:38:49.439Z,100492.56
2023-10-06T02:41:38.758Z,100487.09
2023-10-06T02:44:28.577Z,100478.08
2023-10-06T02:47:05.901Z,100473.35
2023-10-06T02:50:01.372Z,100475.48
2023-10-06T02:53:01.315Z,100475.51
2023-10-06T02:55:35.428Z,100482.71
2023-10-06T02:58:11.477Z,100481.77
2023-10-06T03:00:51.671Z,100472.02
2023-10-06T03:07:34.408Z,100455.52
2023-10-06T03:10:16.528Z,100459.13
2023-10-06T03:13:48.372Z,100468.11
2023-10-06T03:16:21.497Z,100469.43
2023-10-06T03:19:17.816Z,100468.00
2023-10-06T03:21:57.249Z,100463.07
2023-10-06T03:24:34.681Z,100463.98
2023-10-06T03:27:13.547Z,100468.31
2023-10-06T03:29:49.803Z,100477.32
2023-10-06T03:32:29.243Z,100476.87
2023-10-06T03:35:11.385Z,100481.19
2023-10-06T03:37:53.487Z,100477.26
2023-10-06T03:40:44.317Z,100484.25
2023-10-06T03:43:17.207Z,100494.95
2023-10-06T03:45:49.649Z,100495.89
2023-10-06T03:48:25.559Z,100490.30
2023-10-06T03:50:58.968Z,100486.54
2023-10-06T03:53:31.015Z,100481.23
2023-10-06T03:56:02.084Z,100485.19
2023-10-06T03:58:34.141Z,100486.69
2023-10-06T04:01:10.957Z,100489.80
2023-10-06T04:03:45.331Z,100483.88
2023-10-06T04:06:17.548Z,100482.43
2023-10-06T04:08:48.014Z,100481.81
2023-10-06T04:11:18.532Z,100484.60
2023-10-06T04:13:50.458Z,100486.30
2023-10-06T04:16:24.537Z,100487.13
2023-10-06T04:18:56.715Z,100486.96
2023-10-06T04:21:28.494Z,100477.73
2023-10-06T04:24:01.755Z,100477.52
2023-10-06T04:26:33.449Z,100478.60
2023-10-06T04:29:06.348Z,100477.01
2023-10-06T04:31:38.854Z,100476.46
2023-10-06T04:34:10.816Z,100486.81
2023-10-06T04:36:44.098Z,100483.91
2023-10-06T04:39:17.996Z,100483.89
2023-10-06T04:41:50.331Z,100480.27
2023-10-06T04:44:22.400Z,100483.85
2023-10-06T04:46:54.427Z,100475.36
2023-10-06T04:49:26.220Z,100472.85
2023-10-06T04:52:01.655Z,100477.42
2023-10-06T04:54:33.553Z,100481.73
2023-10-06T04:57:07.378Z,100485.36
2023-10-06T04:59:39.139Z,100482.90
2023-10-06T05:02:12.680Z,100481.56
2023-10-06T05:04:44.957Z,100478.45
2023-10-06T05:07:17.463Z,100478.43
2023-10-06T05:09:49.528Z,100477.63
2023-10-06T05:12:21.270Z,100481.32
2023-10-06T05:14:55.163Z,100484.95
2023-10-06T05:17:26.968Z,100480.70
2023-10-06T05:20:00.061Z,100474.62
2023-10-06T05:22:32.069Z,100471.11
2023-10-06T05:25:08.785Z,100463.77
2023-10-06T05:27:40.752Z,100460.52
2023-10-06T05:30:14.842Z,100456.02
2023-10-06T05:32:46.818Z,100463.59
2023-10-06T05:35:22.218Z,100479.52
2023-10-06T05:37:54.445Z,100480.50
2023-10-06T05:40:26.665Z,100474.08
2023-10-06T05:42:58.961Z,100471.88
2023-10-06T05:45:31.499Z,100472.54
2023-10-06T05:48:08.389Z,100474.45
2023-10-06T05:50:41.915Z,100481.25
2023-10-06T05:53:21.285Z,100482.78
2023-10-06T05:55:54.434Z,100483.08
2023-10-06T05:58:26.613Z,100490.56
2023-10-06T06:01:06.351Z,100492.95
2023-10-06T06:03:40.671Z,100496.27
2023-10-06T06:06:16.154Z,100504.02
2023-10-06T06:08:50.049Z,100504.90
2023-10-06T06:11:22.296Z,100506.39
2023-10-06T06:16:31.709Z,100495.56
2023-10-06T06:19:06.946Z,100491.11
2023-10-06T06:21:39.928Z,100492.42
2023-10-06T06:24:12.422Z,100492.09
2023-10-06T06:26:44.738Z,100494.64
2023-10-06T06:29:16.663Z,100499.15
2023-10-06T06:31:47.657Z,100499.86
2023-10-06T06:34:19.534Z,100500.91
2023-10-06T06:36:52.826Z,100504.73
2023-10-06T06:39:24.705Z,100508.23
2023-10-06T06:41:54.991Z,100505.88
2023-10-06T06:44:27.194Z,100498.23
2023-10-06T06:46:59.636Z,100498.30
2023-10-06T06:49:31.550Z,100497.83
2023-10-06T06:52:01.986Z,100497.20
2023-10-06T06:54:38.689Z,100489.90
2023-10-06T06:57:14.296Z,100491.73
2023-10-06T06:59:47.024Z,100493.23
2023-10-06T07:02:18.831Z,100498.86
2023-10-06T07:04:54.247Z,100506.63
2023-10-06T07:07:28.193Z,100502.70
2023-10-06T07:10:00.572Z,100514.78
2023-10-06T07:12:32.422Z,100515.52
2023-10-06T07:15:04.734Z,100516.71
2023-10-06T07:17:36.610Z,100516.08
2023-10-06T07:20:15.467Z,100520.09
2023-10-06T07:22:48.982Z,100524.85
2023-10-06T07:25:21.072Z,100520.89
2023-10-06T07:27:56.774Z,100516.08
2023-10-06T07:30:30.668Z,100517.58
2023-10-06T07:33:04.292Z,100520.35
2023-10-06T07:35:43.426Z,100519.91
2023-10-06T07:38:15.666Z,100522.73
2023-10-06T07:40:49.210Z,100519.94
2023-10-06T07:43:24.809Z,100522.92
2023-10-06T07:45:57.227Z,100525.02
2023-10-06T07:48:29.942Z,100525.11
2023-10-06T07:51:09.293Z,100528.06
2023-10-06T07:53:41.251Z,100527.53
2023-10-06T07:56:15.942Z,100522.13
2023-10-06T07:58:49.436Z,100518.17
2023-10-06T08:01:27.057Z,100514.80
2023-10-06T08:03:59.110Z,100517.80
2023-10-06T08:06:30.939Z,100521.07
2023-10-06T08:09:06.979Z,100527.40
2023-10-06T08:11:40.860Z,100527.56
2023-10-06T08:14:14.733Z,100525.02
2023-10-06T08:16:47.338Z,100524.84
2023-10-06T08:19:23.437Z,100518.78
2023-10-06T08:21:57.138Z,100522.58
2023-10-06T08:24:29.853Z,100524.71
2023-10-06T08:27:02.336Z,100520.83
2023-10-06T08:29:34.738Z,100519.28
2023-10-06T08:32:07.837Z,100523.48
2023-10-06T08:34:40.882Z,100524.12
2023-10-06T08:37:13.181Z,100526.45
2023-10-06T08:39:48.031Z,100517.34
2023-10-06T08:42:20.573Z,100513.55
2023-10-06T08:45:02.559Z,100516.98
2023-10-06T08:47:53.419Z,100514.56
2023-10-06T08:50:37.054Z,100511.23
2023-10-06T08:53:19.761Z,100518.11
2023-10-06T08:55:58.657Z,100517.55
2023-10-06T08:58:33.408Z,100514.19
2023-10-06T09:01:07.601Z,100516.52
2023-10-06T09:03:40.660Z,100516.25
2023-10-06T09:06:13.858Z,100512.02
2023-10-06T09:08:49.419Z,100509.09
2023-10-06T09:11:40.506Z,100508.60
2023-10-06T09:14:13.572Z,100504.95
2023-10-06T09:16:53.035Z,100502.79
2023-10-06T09:19:27.834Z,100500.20
2023-10-06T09:22:08.180Z,100496.91
2023-10-06T09:24:40.878Z,100496.09
2023-10-06T09:27:28.819Z,100494.77
2023-10-06T09:30:13.456Z,100494.55
2023-10-06T09:32:51.436Z,100493.27
2023-10-06T09:35:28.348Z,100496.61
2023-10-06T09:38:27.124Z,100490.48
2023-10-06T09:41:01.555Z,100480.19
2023-10-06T09:44:39.823Z,100477.48
2023-10-06T09:47:16.190Z,100463.98
2023-10-06T09:50:02.746Z,100459.64
2023-10-06T09:52:50.104Z,100457.55
2023-10-06T09:55:29.457Z,100455.09
2023-10-06T09:58:03.152Z,100453.54
2023-10-06T10:00:41.406Z,100449.75
2023-10-06T10:03:16.938Z,100439.95
2023-10-06T10:06:06.700Z,100443.50
2023-10-06T10:08:53.232Z,100442.08
2023-10-06T10:11:40.921Z,100444.92
2023-10-06T10:18:08.368Z,100435.35
2023-10-06T10:20:53.780Z,100436.54
2023-10-06T10:23:36.203Z,100428.80
2023-10-06T10:26:23.588Z,100426.64
2023-10-06T10:29:31.989Z,100422.92
2023-10-06T10:32:15.814Z,100421.62
2023-10-06T10:35:09.831Z,100417.39
2023-10-06T10:38:05.692Z,100411.43
2023-10-06T10:40:51.336Z,100412.05
2023-10-06T10:43:27.881Z,100404.67
2023-10-06T10:46:11.080Z,100401.39
2023-10-06T10:49:10.835Z,100396.44
2023-10-06T10:52:30.946Z,100395.17
2023-10-06T10:55:53.900Z,100397.23
2023-10-06T10:59:00.382Z,100388.72
2023-10-06T11:02:03.786Z,100385.23
2023-10-06T11:04:47.574Z,100377.89
2023-10-06T11:07:34.329Z,100374.91
2023-10-06T11:10:12.278Z,100367.77
2023-10-06T11:12:44.996Z,100361.45
2023-10-06T11:15:33.527Z,100355.10
2023-10-06T11:18:08.694Z,100347.29
2023-10-06T11:20:46.640Z,100336.37
2023-10-06T11:23:18.888Z,100338.48
2023-10-06T11:26:06.588Z,100334.00
2023-10-06T11:28:46.881Z,100331.31
2023-10-06T11:31:20.284Z,100322.89
2023-10-06T11:33:53.424Z,100316.04
2023-10-06T11:36:25.437Z,100311.48
2023-10-06T11:38:57.779Z,100309.16
2023-10-06T11:41:29.640Z,100313.39
2023-10-06T11:44:02.580Z,100311.04
2023-10-06T11:46:51.157Z,100302.43
2023-10-06T11:49:24.301Z,100303.79
2023-10-06T11:51:58.852Z,100298.74
2023-10-06T11:54:37.092Z,100292.77
2023-10-06T11:57:09.534Z,100291.63
2023-10-06T11:59:52.050Z,100288.88
2023-10-06T12:02:25.784Z,100284.98
2023-10-06T12:05:12.329Z,100282.02
2023-10-06T12:07:44.749Z,100272.34
2023-10-06T12:10:18.961Z,100265.14
2023-10-06T12:12:51.951Z,100267.04
2023-10-06T12:15:23.865Z,100269.30
2023-10-06T12:17:56.726Z,100268.04
2023-10-06T12:20:31.062Z,100262.45
2023-10-06T12:23:02.894Z,100258.40
2023-10-06T12:25:34.776Z,100253.92
2023-10-06T12:28:07.490Z,100255.35
2023-10-06T12:30:39.663Z,100253.71
2023-10-06T12:33:12.381Z,100248.85
2023-10-06T12:35:53.884Z,100244.94
2023-10-06T12:38:35.679Z,100244.98
2023-10-06T12:41:08.643Z,100246.47
2023-10-06T12:43:40.792Z,100242.85
2023-10-06T12:46:12.790Z,100237.51
2023-10-06T12:48:46.565Z,100232.80
2023-10-06T12:51:20.399Z,100230.35
2023-10-06T12:53:54.482Z,100227.48
2023-10-06T12:56:29.489Z,100226.02
2023-10-06T12:59:06.074Z,100226.23
2023-10-06T13:01:39.951Z,100227.20
2023-10-06T13:04:14.890Z,100222.20
2023-10-06T13:06:52.572Z,100218.23
2023-10-06T13:09:24.618Z,100215.92
2023-10-06T13:11:56.608Z,100211.77
2023-10-06T13:14:31.441Z,100216.21
2023-10-06T13:17:07.384Z,100211.33
2023-10-06T13:19:39.234Z,100207.13
2023-10-06T13:22:11.232Z,100210.23
2023-10-06T13:27:33.759Z,100202.61
2023-10-06T13:30:14.143Z,100204.01
2023-10-06T13:32:49.777Z,100205.51
2023-10-06T13:35:23.104Z,100200.35
2023-10-06T13:37:55.415Z,100202.74
2023-10-06T13:40:49.192Z,100205.77
2023-10-06T13:43:27.543Z,100208.45
2023-10-06T13:46:04.052Z,100206.65
2023-10-06T13:48:36.126Z,100204.91
2023-10-06T13:51:10.425Z,100201.42
2023-10-06T13:53:43.002Z,100196.36
2023-10-06T13:56:15.128Z,100190.30
2023-10-06T13:58:48.336Z,100184.79
2023-10-06T14:01:21.450Z,100176.44
2023-10-06T14:03:54.413Z,100171.09
2023-10-06T14:06:39.253Z,100167.48
2023-10-06T14:09:13.226Z,100164.56
2023-10-06T14:11:45.120Z,100164.05
2023-10-06T14:14:37.951Z,100160.65
2023-10-06T14:17:18.122Z,100161.77
2023-10-06T14:19:52.466Z,100160.10
2023-10-06T14:22:26.271Z,100161.25
2023-10-06T14:25:00.910Z,100166.63
2023-10-06T14:27:33.614Z,100165.42
2023-10-06T14:30:10.024Z,100170.45
2023-10-06T14:32:46.302Z,100168.39
2023-10-06T14:35:33.489Z,100167.04
2023-10-06T14:38:33.049Z,100173.15
2023-10-06T14:41:25.088Z,100174.14
2023-10-06T14:44:33.916Z,100171.59
2023-10-06T14:47:09.310Z,100171.69
2023-10-06T14:49:46.921Z,100171.88
2023-10-06T14:52:21.009Z,100171.21
2023-10-06T14:54:55.818Z,100175.64
2023-10-06T14:57:29.003Z,100171.84
2023-10-06T15:02:55.600Z,100154.54
2023-10-06T15:05:27.763Z,100154.59
2023-10-06T15:08:00.222Z,100151.94
2023-10-06T15:10:35.512Z,100152.66
2023-10-06T15:13:08.702Z,100150.27
2023-10-06T15:15:48.252Z,100144.55
2023-10-06T15:18:20.886Z,100146.02
2023-10-06T15:20:53.144Z,100143.14
2023-10-06T15:23:25.204Z,100141.80
2023-10-06T15:26:03.754Z,100139.24
2023-10-06T15:28:39.504Z,100138.15
2023-10-06T15:31:16.252Z,100139.45
2023-10-06T15:33:48.487Z,100145.72
2023-10-06T15:36:21.260Z,100149.17
2023-10-06T15:38:53.102Z,100146.21
2023-10-06T15:41:25.198Z,100143.95
2023-10-06T15:43:57.842Z,100151.23
2023-10-06T15:46:29.916Z,100157.91
2023-10-06T15:49:02.153Z,100155.67
2023-10-06T15:51:34.984Z,100162.80
2023-10-06T15:54:10.132Z,100162.86
2023-10-06T15:56:42.596Z,100164.05
2023-10-06T15:59:16.486Z,100166.55
2023-10-06T16:01:51.009Z,100165.18
2023-10-06T16:04:26.616Z,100161.33
2023-10-06T16:07:00.438Z,100154.43
2023-10-06T16:09:32.328Z,100151.79
2023-10-06T16:12:05.374Z,100154.09
2023-10-06T16:14:38.623Z,100150.86
2023-10-06T16:17:11.504Z,100146.86
2023-10-06T16:19:43.929Z,100143.05
2023-10-06T16:22:16.671Z,100140.13
2023-10-06T16:24:48.520Z,100140.04
2023-10-06T16:27:21.178Z,100134.23
2023-10-06T16:29:55.064Z,100140.20
2023-10-06T16:32:30.251Z,100142.95
2023-10-06T16:35:05.700Z,100137.00
2023-10-06T16:37:41.477Z,100137.27
2023-10-06T16:40:14.765Z,100143.42
2023-10-06T16:42:47.166Z,100143.09
2023-10-06T16:45:19.220Z,100138.30
2023-10-06T16:47:51.407Z,100134.81
2023-10-06T16:50:23.802Z,100137.42
2023-10-06T16:52:56.666Z,100142.85
2023-10-06T16:55:28.720Z,100141.61
2023-10-06T16:58:06.228Z,100146.97
2023-10-06T17:00:39.226Z,100151.28
2023-10-06T17:03:11.334Z,100150.31
2023-10-06T17:05:46.955Z,100154.49
2023-10-06T17:08:20.211Z,100157.98
2023-10-06T17:10:52.220Z,100158.82
2023-10-06T17:13:24.590Z,100160.92
2023-10-06T17:15:56.505Z,100164.27
2023-10-06T17:18:28.449Z,100167.25
2023-10-06T17:21:00.281Z,100163.85
2023-10-06T17:23:33.269Z,100165.61
2023-10-06T17:26:06.599Z,100165.73
2023-10-06T17:28:41.560Z,100166.17
2023-10-06T17:34:08.350Z,100170.38
2023-10-06T17:36:40.673Z,100174.10
2023-10-06T17:39:13.163Z,100175.17
2023-10-06T17:41:45.357Z,100175.89
2023-10-06T17:44:20.640Z,100177.27
2023-10-06T17:46:52.573Z,100167.77
2023-10-06T17:49:22.786Z,100172.34
2023-10-06T17:51:54.704Z,100172.00
2023-10-06T17:54:30.242Z,100175.61
2023-10-06T17:57:02.051Z,100176.77
2023-10-06T17:59:34.111Z,100174.20
2023-10-06T18:02:06.452Z,100177.09
2023-10-06T18:04:41.787Z,100175.43
2023-10-06T18:07:15.070Z,100178.89
2023-10-06T18:09:47.298Z,100177.34
2023-10-06T18:14:55.312Z,100177.92
2023-10-06T18:17:28.097Z,100179.79
2023-10-06T18:19:59.983Z,100177.83
2023-10-06T18:22:32.059Z,100179.65
2023-10-06T18:25:04.084Z,100171.59
2023-10-06T18:27:35.929Z,100173.05
2023-10-06T18:30:10.935Z,100167.51
2023-10-06T18:32:46.869Z,100176.38
2023-10-06T18:35:18.775Z,100174.95
2023-10-06T18:37:50.797Z,100175.29
2023-10-06T18:40:24.055Z,100175.96
2023-10-06T18:42:56.304Z,100177.83
2023-10-06T18:45:28.298Z,100181.06
2023-10-06T18:48:00.410Z,100171.44
2023-10-06T18:50:34.693Z,100178.42
2023-10-06T18:53:07.816Z,100181.84
2023-10-06T18:55:39.858Z,100180.54
2023-10-06T18:58:12.645Z,100179.11
2023-10-06T19:00:48.556Z,100175.83
2023-10-06T19:03:28.388Z,100177.04
2023-10-06T19:06:05.368Z,100177.11
2023-10-06T19:08:42.153Z,100175.17
2023-10-06T19:11:15.141Z,100174.95
2023-10-06T19:13:48.598Z,100176.39
2023-10-06T19:16:22.947Z,100171.48
2023-10-06T19:18:54.887Z,100164.77
2023-10-06T19:21:25.321Z,100166.18
2023-10-06T19:23:58.449Z,100163.95
2023-10-06T19:26:32.374Z,100164.30
2023-10-06T19:29:05.317Z,100165.38
2023-10-06T19:31:37.536Z,100164.02
2023-10-06T19:34:09.696Z,100165.05
2023-10-06T19:36:43.673Z,100163.45
2023-10-06T19:39:16.999Z,100163.95
2023-10-06T19:41:50.333Z,100171.52
2023-10-06T19:44:22.529Z,100173.16
2023-10-06T19:46:54.622Z,100178.02
2023-10-06T19:49:26.567Z,100179.27
2023-10-06T19:51:58.728Z,100185.17
2023-10-06T19:54:30.615Z,100185.53
2023-10-06T19:57:02.981Z,100183.09
2023-10-06T19:59:35.151Z,100185.13
2023-10-06T20:02:16.937Z,100178.10
2023-10-06T20:04:48.948Z,100178.39
2023-10-06T20:07:20.941Z,100179.69
2023-10-06T20:09:51.635Z,100183.85
2023-10-06T20:12:24.376Z,100179.09
2023-10-06T20:14:59.268Z,100174.00
2023-10-06T20:17:31.971Z,100173.91
2023-10-06T20:20:05.597Z,100168.31
2023-10-06T20:22:38.637Z,100165.42
2023-10-06T20:25:12.264Z,100163.30
2023-10-06T20:27:47.768Z,100165.02
2023-10-06T20:30:22.088Z,100169.22
2023-10-06T20:32:55.836Z,100167.98
2023-10-06T20:35:29.019Z,100167.27
2023-10-06T20:38:00.945Z,100164.58
2023-10-06T20:40:34.362Z,100170.75
2023-10-06T20:43:08.635Z,100169.50
2023-10-06T20:45:40.442Z,100170.15
2023-10-06T20:48:10.957Z,100170.39
2023-10-06T20:50:44.358Z,100174.43
2023-10-06T20:53:17.374Z,100171.50
2023-10-06T20:55:49.295Z,100171.09
2023-10-06T20:58:22.997Z,100167.52
2023-10-06T21:00:57.453Z,100172.23
2023-10-06T21:03:29.868Z,100172.32
2023-10-06T21:06:02.034Z,100171.05
2023-10-06T21:08:33.839Z,100168.35
2023-10-06T21:11:04.284Z,100169.98
2023-10-06T21:13:37.288Z,100163.33
2023-10-06T21:16:10.420Z,100165.30
2023-10-06T21:18:42.440Z,100162.11
2023-10-06T21:21:14.295Z,100159.56
2023-10-06T21:23:51.164Z,100165.08
2023-10-06T21:26:26.488Z,100155.23
2023-10-06T21:28:59.923Z,100158.15
2023-10-06T21:31:33.004Z,100155.96
2023-10-06T21:34:06.274Z,100153.69
2023-10-06T21:36:39.750Z,100163.58
2023-10-06T21:39:14.386Z,100164.26
2023-10-06T21:41:48.772Z,100169.27
2023-10-06T21:44:22.654Z,100165.63
2023-10-06T21:46:58.645Z,100163.14
2023-10-06T21:49:32.641Z,100159.07
2023-10-06T21:52:17.380Z,100162.40
2023-10-06T21:55:38.581Z,100170.04
2023-10-06T21:58:12.593Z,100170.47
2023-10-06T22:00:47.976Z,100161.61
2023-10-06T22:03:22.527Z,100152.77
2023-10-06T22:06:00.134Z,100151.35
2023-10-06T22:08:51.940Z,100152.80
2023-10-06T22:11:26.239Z,100156.84
2023-10-06T22:13:58.359Z,100156.39
2023-10-06T22:16:30.532Z,100149.48
2023-10-06T22:19:02.571Z,100151.65
2023-10-06T22:21:34.411Z,100159.74
2023-10-06T22:24:07.061Z,100161.68
2023-10-06T22:26:39.081Z,100158.09
2023-10-06T22:29:09.410Z,100154.40
2023-10-06T22:31:44.873Z,100160.11
2023-10-06T22:34:16.867Z,100156.67
2023-10-06T22:36:48.693Z,100154.64
2023-10-06T22:39:21.340Z,100154.42
2023-10-06T22:41:53.213Z,100154.27
2023-10-06T22:44:25.392Z,100151.67
2023-10-06T22:46:55.699Z,100144.25
2023-10-06T22:49:27.877Z,100150.86
2023-10-06T22:52:00.571Z,100146.05
2023-10-06T22:54:32.892Z,100146.84
2023-10-06T22:57:06.618Z,100146.52
2023-10-06T22:59:39.103Z,100144.35
2023-10-06T23:02:11.395Z,100142.34
2023-10-06T23:04:44.264Z,100131.20
2023-10-06T23:07:16.629Z,100125.27
2023-10-06T23:09:48.534Z,100129.77
2023-10-06T23:12:20.568Z,100124.08
2023-10-06T23:14:53.002Z,100126.11
2023-10-06T23:17:25.166Z,100120.83
2023-10-06T23:20:00.167Z,100123.70
2023-10-06T23:22:32.061Z,100122.93
2023-10-06T23:25:04.198Z,100116.91
2023-10-06T23:27:36.183Z,100116.02
2023-10-06T23:30:11.408Z,100114.17
2023-10-06T23:32:44.771Z,100112.77
2023-10-06T23:35:18.737Z,100111.44
2023-10-06T23:37:56.361Z,100115.98
2023-10-06T23:40:34.866Z,100110.69
2023-10-06T23:43:09.633Z,100104.67
2023-10-06T23:45:48.854Z,100104.25
2023-10-06T23:48:20.760Z,100099.08
2023-10-06T23:50:59.866Z,100104.33
2023-10-06T23:53:31.813Z,100096.59
2023-10-06T23:56:02.623Z,100096.39
2023-10-06T23:58:35.335Z,100096.16
